Time;durP1;ratioP1;P1;durP2;ratioP2;P2;SDS_P1;SDS_P2;PMS_P1;PMS_P2;Temp;Humidity;BMP_temperature;BMP_pressure;BME280_temperature;BME280_humidity;BME280_pressure;Samples;Min_cycle;Max_cycle;Signal;HPM_P1;HPM_P2
2023/08/31 00:02:22;;;;;;;7.32;6.60;;;;;;;16.57;85.46;99416.31;5086390;28;20659;-60
2023/08/31 00:04:54;;;;;;;6.78;6.18;;;;;;;16.54;85.74;99413.88;5086974;28;20567;-60
2023/08/31 00:07:22;;;;;;;7.20;6.32;;;;;;;16.53;85.68;99420.84;5089848;28;20231;-62
2023/08/31 00:09:51;;;;;;;7.38;6.45;;;;;;;16.52;85.73;99413.09;5091105;28;20211;-61
2023/08/31 00:12:22;;;;;;;6.40;5.80;;;;;;;16.54;85.71;99419.09;5089269;28;20207;-66
2023/08/31 00:14:50;;;;;;;7.22;6.53;;;;;;;16.52;85.82;99407.91;5091663;28;20200;-63
2023/08/31 00:17:18;;;;;;;6.70;6.00;;;;;;;16.56;85.48;99409.44;5086149;28;20203;-64
2023/08/31 00:19:46;;;;;;;6.18;5.60;;;;;;;16.56;84.95;99412.03;5083001;28;20201;-63
2023/08/31 00:22:15;;;;;;;7.82;6.10;;;;;;;16.54;84.97;99411.28;5089644;28;20216;-61
2023/08/31 00:24:43;;;;;;;7.22;5.60;;;;;;;16.55;85.19;99419.00;5092320;28;20849;-65
2023/08/31 00:27:12;;;;;;;6.68;5.90;;;;;;;16.59;85.24;99407.53;5086703;28;20220;-61
2023/08/31 00:29:40;;;;;;;6.57;5.93;;;;;;;16.61;85.11;99416.13;5088028;28;20238;-60
2023/08/31 00:32:08;;;;;;;6.25;4.93;;;;;;;16.64;84.53;99425.53;5079559;28;20201;-62
2023/08/31 00:34:36;;;;;;;5.90;5.40;;;;;;;16.64;84.57;99418.59;5088743;28;20197;-60
2023/08/31 00:37:04;;;;;;;6.03;5.43;;;;;;;16.60;84.02;99408.38;5088599;28;20197;-64
2023/08/31 00:39:33;;;;;;;6.45;5.85;;;;;;;16.59;84.26;99419.72;5088222;28;20594;-62
2023/08/31 00:42:03;;;;;;;6.30;5.70;;;;;;;16.54;84.34;99408.69;5086612;28;20228;-62
2023/08/31 00:44:31;;;;;;;7.47;5.57;;;;;;;16.55;84.53;99412.97;5090936;28;20204;-62
2023/08/31 00:46:59;;;;;;;6.22;5.63;;;;;;;16.55;84.55;99425.97;5087160;28;20227;-61
2023/08/31 00:49:27;;;;;;;6.50;5.63;;;;;;;16.50;84.43;99414.94;5088768;28;20205;-61
2023/08/31 00:51:57;;;;;;;6.25;5.65;;;;;;;16.45;84.40;99403.91;5088760;28;20192;-65
2023/08/31 00:54:26;;;;;;;5.88;5.28;;;;;;;16.41;84.90;99413.59;5087927;28;20217;-60
2023/08/31 00:56:57;;;;;;;6.43;5.53;;;;;;;16.40;84.71;99412.75;5087595;28;20205;-61
2023/08/31 00:59:26;;;;;;;6.38;5.70;;;;;;;16.41;84.61;99417.03;5081641;28;20785;-62
2023/08/31 01:02:04;;;;;;;8.45;5.65;;;;;;;16.40;84.42;99415.34;5089878;28;20220;-63
2023/08/31 01:04:40;;;;;;;7.03;5.22;;;;;;;16.39;84.42;99420.63;5084292;28;20291;-61
2023/08/31 01:07:18;;;;;;;5.43;4.88;;;;;;;16.35;84.47;99413.88;5086634;28;20228;-63
2023/08/31 01:09:55;;;;;;;5.50;4.75;;;;;;;16.35;84.47;99412.13;5083953;28;20203;-60
2023/08/31 01:12:33;;;;;;;7.30;4.90;;;;;;;16.32;84.48;99414.03;5085158;28;20203;-60
2023/08/31 01:15:07;;;;;;;5.40;4.90;;;;;;;16.30;84.35;99424.47;5086374;28;20197;-60
2023/08/31 01:17:42;;;;;;;6.55;4.95;;;;;;;16.28;84.43;99422.88;5087886;28;20208;-65
2023/08/31 01:20:12;;;;;;;5.50;4.80;;;;;;;16.23;84.66;99420.47;5088376;28;20207;-61
2023/08/31 01:22:44;;;;;;;5.22;4.72;;;;;;;16.22;84.63;99423.97;5087055;28;20306;-61
2023/08/31 01:25:14;;;;;;;5.00;4.50;;;;;;;16.21;84.91;99424.06;5089404;28;20193;-60
2023/08/31 01:27:43;;;;;;;6.22;4.55;;;;;;;16.17;84.87;99423.34;5087683;28;20205;-63
2023/08/31 01:30:11;;;;;;;5.45;4.95;;;;;;;16.14;84.78;99416.53;5086395;28;20196;-60
2023/08/31 01:32:45;;;;;;;5.03;4.63;;;;;;;16.09;85.09;99423.69;5084813;28;20220;-59
2023/08/31 01:35:17;;;;;;;6.32;4.88;;;;;;;16.07;85.19;99422.06;5088157;28;20236;-62
2023/08/31 01:37:51;;;;;;;4.90;4.40;;;;;;;16.09;85.38;99422.81;5081391;28;20239;-63
2023/08/31 01:40:28;;;;;;;5.00;4.55;;;;;;;16.12;85.20;99425.28;5085744;28;20235;-61
2023/08/31 01:42:56;;;;;;;5.55;5.05;;;;;;;16.10;84.72;99430.56;5086894;28;20310;-61
2023/08/31 01:45:26;;;;;;;5.80;5.30;;;;;;;16.03;84.94;99423.13;5087488;28;20300;-64
2023/08/31 01:47:54;;;;;;;5.03;4.57;;;;;;;16.05;85.08;99426.47;5091667;28;20296;-61
2023/08/31 01:50:22;;;;;;;5.50;5.00;;;;;;;16.05;85.18;99426.47;5089373;28;20258;-65
2023/08/31 01:52:50;;;;;;;5.75;5.10;;;;;;;16.03;85.23;99426.56;5086037;28;20228;-67
2023/08/31 01:55:19;;;;;;;6.37;4.97;;;;;;;16.01;84.98;99419.72;5097683;28;20207;-61
2023/08/31 01:57:48;;;;;;;5.40;4.90;;;;;;;16.02;85.39;99421.44;5094115;28;20196;-67
2023/08/31 02:00:18;;;;;;;5.82;5.28;;;;;;;16.00;85.29;99428.44;5087109;28;20223;-60
2023/08/31 02:02:46;;;;;;;6.95;5.60;;;;;;;15.98;85.35;99425.06;5092702;28;20578;-60
2023/08/31 02:05:14;;;;;;;6.97;5.50;;;;;;;15.94;85.44;99420.00;5097377;28;20753;-64
2023/08/31 02:07:42;;;;;;;6.00;5.00;;;;;;;15.98;85.54;99430.25;5083358;28;20284;-61
2023/08/31 02:10:11;;;;;;;5.30;4.90;;;;;;;16.01;85.29;99437.91;5087679;28;20196;-61
2023/08/31 02:12:42;;;;;;;6.10;4.93;;;;;;;15.99;85.32;99429.34;5094373;28;20217;-61
2023/08/31 02:15:11;;;;;;;6.20;4.23;;;;;;;16.03;85.22;99428.31;5095501;28;20200;-61
2023/08/31 02:17:39;;;;;;;5.63;4.57;;;;;;;16.06;85.18;99436.81;5087289;28;20205;-64
2023/08/31 02:20:08;;;;;;;5.65;4.95;;;;;;;16.05;85.01;99427.31;5092178;28;20223;-61
2023/08/31 02:22:36;;;;;;;5.25;4.85;;;;;;;16.05;84.74;99436.88;5091917;28;20317;-61
2023/08/31 02:25:05;;;;;;;5.95;4.82;;;;;;;16.02;84.91;99435.25;5090866;28;20273;-62
2023/08/31 02:27:33;;;;;;;5.47;4.97;;;;;;;16.02;85.12;99437.88;5088268;28;20203;-61
2023/08/31 02:30:04;;;;;;;5.18;4.75;;;;;;;16.02;84.90;99440.47;5090162;28;20200;-60
2023/08/31 02:32:34;;;;;;;5.38;4.90;;;;;;;16.03;84.93;99446.50;5087855;28;20726;-61
2023/08/31 02:35:03;;;;;;;6.20;5.55;;;;;;;16.00;85.19;99441.44;5088038;28;20705;-61
2023/08/31 02:37:31;;;;;;;5.75;5.05;;;;;;;16.01;84.85;99440.50;5086058;28;20197;-60
2023/08/31 02:39:59;;;;;;;6.65;5.35;;;;;;;15.99;85.07;99437.16;5084911;28;20248;-62
2023/08/31 02:42:27;;;;;;;6.03;5.53;;;;;;;15.97;85.33;99437.19;5087706;28;20205;-65
2023/08/31 02:44:55;;;;;;;5.72;5.28;;;;;;;15.97;85.47;99434.59;5091384;28;20208;-61
2023/08/31 02:47:23;;;;;;;6.10;5.50;;;;;;;15.98;85.36;99441.50;5087564;28;20209;-60
2023/08/31 02:49:52;;;;;;;5.80;5.20;;;;;;;15.96;85.35;99432.94;5095255;28;20205;-60
2023/08/31 02:52:20;;;;;;;6.03;5.53;;;;;;;15.93;85.48;99439.09;5087807;28;20216;-60
2023/08/31 02:54:48;;;;;;;6.07;5.35;;;;;;;15.92;85.61;99447.81;5088196;28;20208;-61
2023/08/31 02:57:19;;;;;;;5.45;4.95;;;;;;;15.90;85.53;99435.78;5088612;28;20257;-62
2023/08/31 02:59:50;;;;;;;4.93;4.53;;;;;;;15.84;85.61;99444.69;5086567;28;20214;-62
2023/08/31 03:02:19;;;;;;;5.93;5.35;;;;;;;15.84;85.59;99444.69;5088225;28;20219;-63
2023/08/31 03:04:47;;;;;;;5.47;4.97;;;;;;;15.84;85.93;99443.84;5083825;28;20254;-61
2023/08/31 03:07:16;;;;;;;5.78;5.28;;;;;;;15.83;86.04;99449.94;5084811;28;20209;-60
2023/08/31 03:09:49;;;;;;;5.88;5.22;;;;;;;15.84;86.26;99449.06;5088033;28;20283;-61
2023/08/31 03:12:17;;;;;;;5.87;5.13;;;;;;;15.81;86.41;99450.03;5087610;28;20224;-60
2023/08/31 03:14:45;;;;;;;5.38;4.88;;;;;;;15.81;86.41;99455.22;5087634;28;20207;-63
2023/08/31 03:17:13;;;;;;;6.03;5.30;;;;;;;15.76;86.73;99466.69;5089532;28;20201;-61
2023/08/31 03:19:42;;;;;;;4.53;4.13;;;;;;;15.74;87.06;99469.38;5084141;28;20208;-62
2023/08/31 03:22:10;;;;;;;4.10;3.80;;;;;;;15.63;86.97;99472.38;5090404;28;20208;-60
2023/08/31 03:24:39;;;;;;;4.20;3.90;;;;;;;15.64;87.47;99463.66;5092909;28;20656;-63
2023/08/31 03:27:07;;;;;;;4.47;4.07;;;;;;;15.63;87.89;99461.16;5084724;28;20211;-61
2023/08/31 03:29:35;;;;;;;6.00;4.10;;;;;;;15.64;87.18;99465.44;5090379;28;20568;-61
2023/08/31 03:32:04;;;;;;;4.47;4.18;;;;;;;15.70;87.50;99462.63;5091116;28;20204;-61
2023/08/31 03:34:32;;;;;;;4.43;4.05;;;;;;;15.73;87.13;99466.84;5088769;28;20227;-60
2023/08/31 03:37:00;;;;;;;4.70;4.30;;;;;;;15.74;86.92;99469.38;5081774;28;20204;-61
2023/08/31 03:39:28;;;;;;;4.63;4.23;;;;;;;15.74;87.01;99469.38;5092476;28;20244;-60
2023/08/31 03:41:58;;;;;;;4.35;3.95;;;;;;;15.75;87.03;99471.03;5085544;28;20219;-64
2023/08/31 03:44:26;;;;;;;5.18;4.32;;;;;;;15.76;86.85;99467.56;5083606;28;20197;-61
2023/08/31 03:46:54;;;;;;;4.60;4.20;;;;;;;15.74;86.81;99474.56;5086280;28;20609;-61
2023/08/31 03:49:22;;;;;;;4.30;3.90;;;;;;;15.77;86.83;99474.44;5093713;28;20235;-61
2023/08/31 03:51:50;;;;;;;6.15;3.80;;;;;;;15.81;86.82;99483.78;5089812;28;20644;-63
2023/08/31 03:54:18;;;;;;;3.70;3.40;;;;;;;15.81;86.14;99482.94;5088525;28;20227;-59
2023/08/31 03:56:46;;;;;;;4.55;3.85;;;;;;;15.82;86.04;99480.28;5075903;28;20201;-60
2023/08/31 03:59:15;;;;;;;5.00;4.50;;;;;;;15.82;85.86;99482.88;5090279;28;20232;-60
2023/08/31 04:01:43;;;;;;;5.22;3.75;;;;;;;15.82;85.77;99487.22;5093145;28;20299;-59
2023/08/31 04:04:11;;;;;;;5.10;3.70;;;;;;;15.80;85.35;99489.91;5092080;28;20601;-61
2023/08/31 04:06:39;;;;;;;4.10;3.80;;;;;;;15.79;85.88;99493.38;5088696;28;20293;-62
2023/08/31 04:09:07;;;;;;;5.30;3.28;;;;;;;15.79;85.69;99487.34;5090245;28;20209;-62
2023/08/31 04:11:35;;;;;;;4.32;3.42;;;;;;;15.82;85.66;99482.03;5088799;28;20211;-60
2023/08/31 04:14:03;;;;;;;3.80;3.50;;;;;;;15.83;85.68;99478.50;5090205;28;20212;-64
2023/08/31 04:16:32;;;;;;;4.03;3.50;;;;;;;15.84;85.44;99475.88;5082843;28;20298;-59
2023/08/31 04:19:00;;;;;;;4.38;3.35;;;;;;;15.88;85.63;99468.78;5092579;28;20714;-61
2023/08/31 04:21:28;;;;;;;3.93;3.50;;;;;;;15.90;84.67;99470.41;5090249;28;20741;-61
2023/08/31 04:23:59;;;;;;;3.28;2.97;;;;;;;15.91;84.81;99473.88;5093130;28;20203;-60
2023/08/31 04:26:27;;;;;;;6.63;3.72;;;;;;;15.91;84.82;99472.09;5090110;28;20200;-67
2023/08/31 04:28:56;;;;;;;3.65;3.08;;;;;;;15.92;84.32;99478.13;5089486;28;20226;-63
2023/08/31 04:31:24;;;;;;;3.22;2.72;;;;;;;15.94;84.71;99477.19;5090284;28;20250;-61
2023/08/31 04:33:54;;;;;;;2.92;2.72;;;;;;;15.97;84.72;99483.13;5088876;28;20209;-60
2023/08/31 04:36:22;;;;;;;6.60;3.37;;;;;;;15.96;84.61;99481.47;5083426;28;20251;-59
2023/08/31 04:38:50;;;;;;;3.75;3.45;;;;;;;15.94;84.47;99479.78;5086290;28;20198;-62
2023/08/31 04:41:18;;;;;;;2.90;2.70;;;;;;;15.98;84.46;99477.88;5091847;28;20207;-60
2023/08/31 04:43:47;;;;;;;3.15;2.85;;;;;;;15.98;84.55;99483.09;5090666;28;20331;-62
2023/08/31 04:46:16;;;;;;;3.30;3.00;;;;;;;16.05;84.48;99486.25;5090014;28;20212;-67
2023/08/31 04:48:44;;;;;;;3.38;2.70;;;;;;;16.06;83.88;99490.56;5088145;28;20563;-62
2023/08/31 04:51:32;;;;;;;2.73;2.53;;;;;;;16.05;83.71;99499.22;5091520;28;20193;-62
2023/08/31 04:54:00;;;;;;;3.45;3.15;;;;;;;16.12;84.03;99503.25;5094183;28;20208;-61
2023/08/31 04:56:33;;;;;;;3.35;3.05;;;;;;;16.11;83.37;99499.81;5086916;28;20243;-62
2023/08/31 04:59:02;;;;;;;3.67;2.90;;;;;;;16.14;83.10;99491.06;5085012;28;20546;-60
2023/08/31 05:01:30;;;;;;;3.35;3.05;;;;;;;16.16;83.32;99504.81;5090119;28;20212;-60
2023/08/31 05:03:58;;;;;;;4.28;3.03;;;;;;;16.22;83.04;99508.91;5087218;28;20223;-63
2023/08/31 05:06:26;;;;;;;3.22;2.90;;;;;;;16.23;82.54;99508.84;5089640;28;20193;-62
2023/08/31 05:08:56;;;;;;;4.60;2.80;;;;;;;16.28;83.04;99517.31;5087935;28;20560;-60
2023/08/31 05:11:25;;;;;;;2.97;2.78;;;;;;;16.30;82.17;99515.47;5081368;28;20215;-64
2023/08/31 05:13:52;;;;;;;2.47;2.25;;;;;;;16.28;80.42;99525.09;5078810;28;20258;-61
2023/08/31 05:16:20;;;;;;;3.40;2.30;;;;;;;16.30;80.59;99531.06;5079309;28;20212;-61
2023/08/31 05:18:50;;;;;;;2.30;2.10;;;;;;;16.38;80.45;99525.53;5089818;28;20211;-61
2023/08/31 05:21:17;;;;;;;2.17;1.98;;;;;;;16.50;79.52;99524.16;5090638;28;20208;-63
2023/08/31 05:23:45;;;;;;;2.00;1.80;;;;;;;16.59;78.69;99531.56;5088126;28;20616;-61
2023/08/31 05:26:15;;;;;;;2.35;1.52;;;;;;;16.70;78.28;99524.09;5087111;28;20204;-60
2023/08/31 05:28:44;;;;;;;3.00;1.35;;;;;;;16.83;76.91;99527.88;5090357;28;20623;-61
2023/08/31 05:31:12;;;;;;;1.77;1.52;;;;;;;16.88;75.25;99541.53;5088886;28;20288;-62
2023/08/31 05:33:40;;;;;;;2.45;1.33;;;;;;;16.78;75.18;99542.00;5088743;28;20228;-60
2023/08/31 05:36:08;;;;;;;2.92;1.40;;;;;;;16.74;75.10;99543.06;5092475;28;20213;-61
2023/08/31 05:38:36;;;;;;;1.85;1.27;;;;;;;16.79;75.41;99544.56;5086364;28;20673;-63
2023/08/31 05:41:06;;;;;;;3.08;2.05;;;;;;;16.81;75.29;99544.47;5087017;28;20699;-65
2023/08/31 05:43:36;;;;;;;12.32;9.52;;;;;;;16.86;75.55;99540.75;5089649;28;20631;-63
2023/08/31 05:46:04;;;;;;;3.08;1.15;;;;;;;16.91;75.44;99548.34;5083829;28;20225;-61
2023/08/31 05:48:32;;;;;;;2.08;1.25;;;;;;;16.93;74.55;99556.09;5096370;28;20587;-61
2023/08/31 05:51:01;;;;;;;1.73;1.60;;;;;;;16.92;74.81;99564.81;5083184;28;20668;-64
2023/08/31 05:53:29;;;;;;;1.70;1.23;;;;;;;16.93;75.10;99556.09;5088850;28;20270;-63
2023/08/31 05:56:03;;;;;;;1.77;1.02;;;;;;;16.97;73.19;99558.47;5090713;28;20283;-63
2023/08/31 05:58:33;;;;;;;3.47;1.17;;;;;;;16.93;72.23;99561.28;5092574;28;20772;-61
2023/08/31 06:01:03;;;;;;;2.13;1.00;;;;;;;16.89;72.67;99571.81;5081609;28;20660;-61
2023/08/31 06:03:31;;;;;;;2.35;1.15;;;;;;;16.95;72.78;99569.88;5085335;28;20574;-61
2023/08/31 06:06:00;;;;;;;3.28;1.30;;;;;;;17.07;72.51;99574.50;5080474;28;20625;-63
2023/08/31 06:08:29;;;;;;;1.40;1.20;;;;;;;17.21;72.41;99586.91;5081861;28;20676;-62
2023/08/31 06:10:57;;;;;;;1.50;1.05;;;;;;;17.37;70.85;99573.09;5086315;28;20212;-60
2023/08/31 06:13:25;;;;;;;1.42;1.00;;;;;;;17.43;70.20;99573.72;5084202;28;20797;-67
2023/08/31 06:15:55;;;;;;;1.65;1.20;;;;;;;17.57;69.95;99573.94;5088064;28;20589;-62
2023/08/31 06:18:24;;;;;;;1.58;1.20;;;;;;;17.51;68.82;99577.66;5085324;28;20668;-63
2023/08/31 06:20:52;;;;;;;2.50;1.50;;;;;;;17.51;69.70;99576.81;5077989;28;20201;-64
2023/08/31 06:23:21;;;;;;;3.00;1.52;;;;;;;17.58;68.66;99573.00;5083427;28;20307;-62
2023/08/31 06:25:48;;;;;;;3.28;1.50;;;;;;;17.59;68.37;99580.72;5079769;28;20288;-61
2023/08/31 06:28:17;;;;;;;2.00;1.33;;;;;;;17.92;68.48;99585.25;5088166;28;20261;-60
2023/08/31 06:30:46;;;;;;;1.55;1.33;;;;;;;18.38;66.29;99576.91;5087944;28;20644;-63
2023/08/31 06:33:15;;;;;;;1.38;1.27;;;;;;;18.59;64.08;99576.66;5079853;28;20193;-61
2023/08/31 06:35:48;;;;;;;1.85;1.40;;;;;;;18.45;64.93;99579.13;5081571;28;20652;-68
2023/08/31 06:38:16;;;;;;;2.88;1.30;;;;;;;18.26;65.23;99584.44;5089545;28;20209;-65
2023/08/31 06:40:44;;;;;;;3.00;1.25;;;;;;;18.16;66.06;99580.59;5092511;28;20233;-63
2023/08/31 06:43:12;;;;;;;3.92;1.30;;;;;;;18.09;65.47;99590.50;5093102;28;20209;-62
2023/08/31 06:45:41;;;;;;;2.40;1.20;;;;;;;18.10;66.01;99586.13;5084653;28;20231;-65
2023/08/31 06:48:09;;;;;;;2.58;1.35;;;;;;;18.19;65.67;99583.06;5092183;28;20554;-63
2023/08/31 06:50:37;;;;;;;2.58;1.08;;;;;;;18.15;65.41;99593.69;5093129;28;20790;-65
2023/08/31 06:53:06;;;;;;;1.73;1.15;;;;;;;18.14;65.32;99594.63;5090110;28;20210;-63
2023/08/31 06:55:34;;;;;;;1.00;1.00;;;;;;;18.17;65.07;99594.47;5083083;28;20648;-63
2023/08/31 06:58:04;;;;;;;4.28;1.40;;;;;;;18.15;65.54;99597.16;5086857;28;20292;-64
2023/08/31 07:00:33;;;;;;;2.95;1.33;;;;;;;18.30;65.26;99599.00;5088522;28;20189;-68
2023/08/31 07:03:01;;;;;;;1.35;1.20;;;;;;;18.37;64.49;99599.53;5091309;28;20204;-63
2023/08/31 07:05:35;;;;;;;1.80;1.27;;;;;;;18.48;64.46;99593.75;5091646;28;20224;-64
2023/08/31 07:08:03;;;;;;;1.45;1.27;;;;;;;18.57;64.25;99585.47;5097618;28;20207;-63
2023/08/31 07:10:32;;;;;;;4.97;1.58;;;;;;;18.64;64.32;99594.66;5085532;28;20201;-62
2023/08/31 07:13:00;;;;;;;2.17;1.38;;;;;;;18.88;64.36;99597.78;5097997;28;20207;-62
2023/08/31 07:15:28;;;;;;;1.45;1.35;;;;;;;19.14;62.58;99596.38;5091959;28;20598;-63
2023/08/31 07:17:59;;;;;;;1.85;1.33;;;;;;;19.45;61.86;99605.19;5093393;28;20208;-63
2023/08/31 07:20:27;;;;;;;4.07;1.50;;;;;;;19.63;60.86;99604.19;5092893;28;20278;-63
2023/08/31 07:22:56;;;;;;;1.42;1.17;;;;;;;19.83;60.12;99602.22;5088508;28;20574;-63
2023/08/31 07:25:24;;;;;;;3.28;1.60;;;;;;;19.88;60.06;99608.00;5080610;28;20197;-60
2023/08/31 07:27:53;;;;;;;2.90;1.60;;;;;;;19.92;59.79;99609.53;5091708;28;20206;-62
2023/08/31 07:30:21;;;;;;;1.90;1.70;;;;;;;19.91;59.18;99606.06;5086721;28;20826;-62
2023/08/31 07:32:49;;;;;;;2.70;1.60;;;;;;;19.69;60.04;99598.59;5085490;28;20205;-63
2023/08/31 07:35:17;;;;;;;2.03;1.42;;;;;;;19.57;61.20;99612.34;5084167;28;20213;-65
2023/08/31 07:37:45;;;;;;;2.05;1.65;;;;;;;19.52;61.55;99620.44;5086951;28;20667;-63
2023/08/31 07:40:13;;;;;;;13.40;11.32;;;;;;;20.09;62.34;99624.25;5085049;28;20241;-61
2023/08/31 07:42:41;;;;;;;2.65;1.60;;;;;;;20.72;58.20;99619.66;5090844;28;20215;-63
2023/08/31 07:45:11;;;;;;;1.48;1.38;;;;;;;21.10;56.51;99613.88;5086233;28;20717;-62
2023/08/31 07:47:39;;;;;;;2.97;1.40;;;;;;;21.33;55.50;99617.69;5083594;28;20678;-62
2023/08/31 07:50:08;;;;;;;1.98;1.20;;;;;;;22.46;54.22;99617.38;5084797;28;20204;-61
2023/08/31 07:52:37;;;;;;;2.00;1.00;;;;;;;24.47;48.36;99613.53;5085311;28;20201;-60
2023/08/31 07:55:06;;;;;;;1.40;1.20;;;;;;;26.09;43.52;99607.75;5083943;28;20209;-60
2023/08/31 07:57:35;;;;;;;1.65;1.52;;;;;;;25.91;41.08;99616.19;5081247;28;20204;-64
2023/08/31 08:00:03;;;;;;;1.20;1.10;;;;;;;25.28;43.18;99613.34;5092699;28;20740;-65
2023/08/31 08:02:33;;;;;;;2.22;1.58;;;;;;;25.80;42.40;99608.31;5089924;28;20215;-61
2023/08/31 08:05:02;;;;;;;0.95;0.80;;;;;;;26.01;39.43;99616.28;5092336;28;20212;-61
2023/08/31 08:07:30;;;;;;;1.85;0.90;;;;;;;27.00;38.86;99614.97;5095884;28;20249;-62
2023/08/31 08:09:58;;;;;;;1.63;1.10;;;;;;;27.78;36.33;99621.34;5099923;28;20208;-63
2023/08/31 08:12:26;;;;;;;1.13;0.90;;;;;;;27.87;36.54;99609.94;5091747;28;20209;-62
2023/08/31 08:14:54;;;;;;;1.98;1.00;;;;;;;27.64;35.68;99621.69;5092192;28;20273;-61
2023/08/31 08:17:22;;;;;;;1.17;0.95;;;;;;;27.13;36.51;99626.16;5090295;28;20201;-62
2023/08/31 08:19:51;;;;;;;0.80;0.80;;;;;;;26.40;38.45;99628.00;5087541;28;20207;-62
2023/08/31 08:22:19;;;;;;;0.80;0.80;;;;;;;26.33;37.37;99625.97;5084215;28;20346;-61
2023/08/31 08:24:47;;;;;;;2.17;1.20;;;;;;;26.32;37.93;99619.84;5092034;28;20200;-66
2023/08/31 08:27:17;;;;;;;1.15;1.00;;;;;;;26.21;38.59;99617.25;5091905;28;20240;-63
2023/08/31 08:29:46;;;;;;;2.00;0.70;;;;;;;25.91;37.49;99628.56;5091860;28;20201;-61
2023/08/31 08:32:15;;;;;;;0.90;0.70;;;;;;;25.78;38.31;99620.81;5086160;28;20200;-61
2023/08/31 08:34:43;;;;;;;2.10;0.65;;;;;;;25.92;38.53;99628.47;5091677;28;20581;-62
2023/08/31 08:37:12;;;;;;;3.78;1.02;;;;;;;25.98;37.43;99622.66;5092172;28;20232;-61
2023/08/31 08:39:40;;;;;;;1.10;0.80;;;;;;;25.84;38.36;99627.41;5091848;28;20236;-62
2023/08/31 08:42:10;;;;;;;4.63;0.80;;;;;;;25.81;38.89;99631.13;5090092;28;20205;-61
2023/08/31 08:44:39;;;;;;;1.27;0.98;;;;;;;25.75;38.77;99639.53;5097893;28;20207;-62
2023/08/31 08:47:08;;;;;;;1.52;0.82;;;;;;;25.79;38.76;99638.34;5086832;28;20196;-61
2023/08/31 08:49:37;;;;;;;1.98;1.27;;;;;;;27.23;36.45;99646.53;5101461;28;20250;-63
2023/08/31 08:52:06;;;;;;;1.40;1.08;;;;;;;28.38;33.27;99643.22;5092027;28;20716;-62
2023/08/31 08:54:36;;;;;;;0.90;0.85;;;;;;;28.67;33.26;99631.72;5089282;28;20234;-61
2023/08/31 08:57:07;;;;;;;1.95;0.70;;;;;;;29.28;32.53;99633.91;5080563;28;20319;-62
2023/08/31 08:59:35;;;;;;;2.42;0.98;;;;;;;29.11;32.37;99638.16;5086690;28;20651;-62
2023/08/31 09:02:04;;;;;;;2.33;1.15;;;;;;;29.26;32.95;99646.47;5094428;28;20648;-62
2023/08/31 09:04:33;;;;;;;3.45;1.00;;;;;;;29.09;32.95;99634.84;5091623;28;20295;-66
2023/08/31 09:07:01;;;;;;;2.33;1.17;;;;;;;28.42;33.28;99641.97;5091703;28;20236;-66
2023/08/31 09:09:29;;;;;;;1.40;1.30;;;;;;;27.97;34.47;99644.34;5091719;28;20626;-62
2023/08/31 09:12:09;;;;;;;2.80;1.23;;;;;;;27.63;35.28;99643.88;5086589;28;20250;-62
2023/08/31 09:14:36;;;;;;;2.90;1.20;;;;;;;26.85;36.48;99648.03;5091548;28;20638;-63
2023/08/31 09:17:06;;;;;;;1.33;1.15;;;;;;;26.09;38.26;99648.19;5088999;28;20589;-64
2023/08/31 09:19:34;;;;;;;1.40;1.30;;;;;;;25.04;40.75;99652.19;5084652;28;20262;-63
2023/08/31 09:22:02;;;;;;;3.58;1.50;;;;;;;24.68;41.76;99653.22;5092479;28;20208;-63
2023/08/31 09:24:30;;;;;;;2.85;1.60;;;;;;;24.36;42.25;99664.34;5091307;28;20648;-61
2023/08/31 09:27:00;;;;;;;1.50;1.40;;;;;;;24.09;42.61;99657.56;5089137;28;20643;-62
2023/08/31 09:29:28;;;;;;;2.10;1.30;;;;;;;24.12;43.32;99664.41;5091284;28;20226;-61
2023/08/31 09:31:58;;;;;;;1.73;1.60;;;;;;;24.79;43.77;99658.50;5090507;28;20202;-67
2023/08/31 09:34:33;;;;;;;1.85;1.50;;;;;;;25.19;40.88;99666.00;5090803;28;20215;-62
2023/08/31 09:37:05;;;;;;;1.30;1.20;;;;;;;25.19;40.74;99664.19;5091206;28;20216;-63
2023/08/31 09:39:37;;;;;;;2.05;1.42;;;;;;;25.02;41.45;99669.91;5090823;28;20327;-62
2023/08/31 09:42:06;;;;;;;1.50;1.33;;;;;;;24.85;41.48;99671.19;5082086;28;20624;-67
2023/08/31 09:44:34;;;;;;;2.20;1.50;;;;;;;24.76;40.86;99671.91;5087554;28;20250;-60
2023/08/31 09:47:03;;;;;;;1.90;1.20;;;;;;;24.56;41.22;99673.44;5099252;28;20543;-61
2023/08/31 09:49:33;;;;;;;1.58;1.13;;;;;;;24.43;41.67;99678.78;5083777;28;20223;-62
2023/08/31 09:52:04;;;;;;;1.20;1.10;;;;;;;24.43;41.54;99678.78;5097665;28;20205;-61
2023/08/31 09:54:35;;;;;;;1.55;1.10;;;;;;;24.34;41.08;99674.19;5099285;28;20291;-61
2023/08/31 09:57:04;;;;;;;4.55;2.60;;;;;;;24.41;41.61;99679.84;5090849;28;20251;-63
2023/08/31 09:59:35;;;;;;;1.27;1.17;;;;;;;24.58;41.32;99684.69;5088795;28;20201;-61
2023/08/31 10:02:03;;;;;;;1.85;1.20;;;;;;;24.43;41.70;99691.94;5084816;28;20675;-61
2023/08/31 10:04:34;;;;;;;3.00;1.55;;;;;;;24.30;41.51;99693.75;5090081;28;20278;-66
2023/08/31 10:07:05;;;;;;;2.60;1.27;;;;;;;24.59;41.96;99688.97;5089497;28;20201;-62
2023/08/31 10:09:34;;;;;;;1.40;1.30;;;;;;;25.20;39.98;99688.75;5090876;28;20201;-62
2023/08/31 10:12:05;;;;;;;1.42;1.33;;;;;;;26.34;37.88;99683.97;5085108;28;20285;-62
2023/08/31 10:14:34;;;;;;;1.58;0.93;;;;;;;27.25;36.49;99682.47;5088800;28;20526;-62
2023/08/31 10:17:04;;;;;;;1.48;1.17;;;;;;;28.01;34.25;99687.28;5090715;28;20204;-64
2023/08/31 10:19:33;;;;;;;1.25;1.00;;;;;;;27.87;33.54;99686.72;5095036;28;20196;-63
2023/08/31 10:22:04;;;;;;;1.98;1.27;;;;;;;26.91;35.57;99676.56;5090405;28;20246;-64
2023/08/31 10:24:59;;;;;;;1.80;1.27;;;;;;;26.34;36.71;99681.31;5101383;28;20204;-63
2023/08/31 10:27:28;;;;;;;1.27;1.08;;;;;;;26.31;37.49;99678.09;5086115;28;20219;-65
2023/08/31 10:29:57;;;;;;;5.88;0.90;;;;;;;26.24;38.02;99685.69;5090321;28;20695;-63
2023/08/31 10:32:25;;;;;;;1.33;1.23;;;;;;;25.67;38.65;99686.81;5090748;28;20211;-64
2023/08/31 10:35:07;;;;;;;1.27;1.17;;;;;;;25.04;40.64;99687.28;5094086;28;20250;-63
2023/08/31 10:37:35;;;;;;;1.58;1.48;;;;;;;24.76;41.38;99690.34;5089127;28;20695;-63
2023/08/31 10:40:11;;;;;;;2.55;1.10;;;;;;;24.57;41.37;99689.13;5093852;28;20302;-64
2023/08/31 10:42:45;;;;;;;2.53;1.23;;;;;;;24.43;42.12;99684.03;5094058;28;20245;-64
2023/08/31 10:45:15;;;;;;;2.05;1.40;;;;;;;23.93;42.29;99691.19;5093838;28;20236;-64
2023/08/31 10:47:44;;;;;;;2.03;1.40;;;;;;;23.54;43.46;99694.88;5093389;28;20672;-62
2023/08/31 10:50:21;;;;;;;1.70;1.60;;;;;;;23.35;44.71;99704.06;5094098;28;20200;-63
2023/08/31 10:52:50;;;;;;;2.38;1.70;;;;;;;23.41;44.96;99704.59;5091449;28;20661;-63
2023/08/31 10:55:18;;;;;;;1.67;1.58;;;;;;;23.55;44.49;99710.56;5091687;28;20200;-67
2023/08/31 10:57:46;;;;;;;1.73;1.30;;;;;;;23.57;44.33;99715.72;5095338;28;20221;-63
2023/08/31 11:00:48;;;;;;;3.35;1.50;;;;;;;23.30;43.85;99707.97;5093844;28;20649;-63
2023/08/31 11:03:18;;;;;;;1.42;1.33;;;;;;;22.81;45.91;99700.78;5093848;28;20768;-64
2023/08/31 11:05:53;;;;;;;2.05;1.58;;;;;;;22.69;45.97;99702.47;5089292;28;20225;-66
2023/08/31 11:08:24;;;;;;;2.35;1.88;;;;;;;22.62;46.00;99699.41;5090330;28;20283;-63
2023/08/31 11:10:53;;;;;;;2.92;1.48;;;;;;;22.77;46.11;99694.06;5086000;28;20574;-64
2023/08/31 11:13:23;;;;;;;2.70;1.88;;;;;;;22.89;45.75;99693.22;5093889;28;20203;-63
2023/08/31 11:15:53;;;;;;;2.35;1.85;;;;;;;22.93;45.92;99705.25;5091692;28;20193;-63
2023/08/31 11:18:22;;;;;;;2.15;1.80;;;;;;;22.81;45.19;99701.63;5093750;28;20691;-63
2023/08/31 11:20:51;;;;;;;4.38;1.88;;;;;;;22.70;45.00;99688.38;5093476;28;20250;-64
2023/08/31 11:23:19;;;;;;;1.85;1.50;;;;;;;22.58;44.61;99697.94;5093082;28;20284;-66
2023/08/31 11:25:48;;;;;;;7.95;2.10;;;;;;;22.39;44.88;99694.84;5092367;28;20201;-63
2023/08/31 11:28:16;;;;;;;1.42;1.33;;;;;;;22.33;45.59;99705.75;5093445;28;20576;-63
2023/08/31 11:30:46;;;;;;;1.80;1.60;;;;;;;22.41;45.43;99700.81;5092089;28;20212;-63
2023/08/31 11:33:16;;;;;;;2.20;1.85;;;;;;;22.55;46.03;99703.38;5093014;28;20199;-62
2023/08/31 11:35:45;;;;;;;2.13;1.52;;;;;;;22.65;45.50;99703.63;5100499;28;20215;-63
2023/08/31 11:38:16;;;;;;;2.20;1.65;;;;;;;22.84;45.48;99708.47;5092915;28;20230;-65
2023/08/31 11:40:44;;;;;;;1.77;1.63;;;;;;;22.92;45.32;99706.19;5099693;28;20228;-63
2023/08/31 11:43:12;;;;;;;1.70;1.60;;;;;;;23.10;44.78;99697.03;5093681;28;20540;-64
2023/08/31 11:45:43;;;;;;;4.03;1.90;;;;;;;23.39;44.70;99702.06;5092354;28;20558;-62